首页
METAR-TAF:

METAR-TAF

机场 :

伊斯坦布尔 阿塔土克, 土耳其

阿塔蒂尔克国际机场

纬度: 40-58N, 经度: 028-49E, 海拔: 48米

当前天气观测

该预报发布于35分钟前的06:20 UTC
风速5节,风向东南,在之间变化
温度 18°C
湿度 68%
气压 1016 hPa
能见度10公里或以上
1500米以下无云,无积雨云

METAR: LTBA 250620Z 14005KT 100V180 CAVOK 18/12 Q1016 NOSIG RMK RWY17L 15004KT 110V190 RWY05 13004KT RWY23 12004KT

时间: 09:55 (06:55 UTC)

预报

该预报发布于2小时和15分钟前的04:40 UTC
预报有效从25日的 06点(UTC)到 26日的 12点(UTC)
风速2节,风向多变
能见度10公里或以上
1500米以下无云,无积雨云
成为
从 25日的 14点(UTC)到 25日的 17点(UTC)
风速12节,风向

TAF: LTBA 250440Z 2506/2612 VRB02KT CAVOK BECMG 2514/2517 01012KT

超过4000个机场的气象观测和天气预报(METAR&TAF报告)。

可查询的气象台以黄色和红色小点在地图上表示。

将鼠标移到小点上方,可查看气象台名称。

然后点击查看天气观测和预报。

如需切换地图:点击带黑十字的绿色按钮放大地图;点击带横线的绿色按钮缩小地图;或者点击绿色箭头查看邻近地区的地图。


METAR-TAF: